sensor_id;sensor_type;location;lat;lon;timestamp;pressure;altitude;pressure_sealevel;temperature
74750;BMP280;63269;53.330;-6.288;2022-11-15T00:00:49;98870.94;;;20.91
74750;BMP280;63269;53.330;-6.288;2022-11-15T00:03:25;98872.91;;;20.91
74750;BMP280;63269;53.330;-6.288;2022-11-15T00:05:51;98866.09;;;20.90
74750;BMP280;63269;53.330;-6.288;2022-11-15T00:08:16;98859.31;;;20.89
74750;BMP280;63269;53.330;-6.288;2022-11-15T00:10:42;98841.84;;;20.88
74750;BMP280;63269;53.330;-6.288;2022-11-15T00:13:10;98840.41;;;20.87
74750;BMP280;63269;53.330;-6.288;2022-11-15T00:15:36;98827.84;;;20.87
74750;BMP280;63269;53.330;-6.288;2022-11-15T00:18:03;98822.97;;;20.86
74750;BMP280;63269;53.330;-6.288;2022-11-15T00:20:29;98822.97;;;20.86
74750;BMP280;63269;53.330;-6.288;2022-11-15T00:22:55;98810.38;;;20.86
74750;BMP280;63269;53.330;-6.288;2022-11-15T00:25:20;98809.38;;;20.84
74750;BMP280;63269;53.330;-6.288;2022-11-15T00:27:46;98809.63;;;20.86
74750;BMP280;63269;53.330;-6.288;2022-11-15T00:30:11;98798.97;;;20.86
74750;BMP280;63269;53.330;-6.288;2022-11-15T00:32:37;98789.53;;;20.85
74750;BMP280;63269;53.330;-6.288;2022-11-15T00:35:03;98789.53;;;20.85
74750;BMP280;63269;53.330;-6.288;2022-11-15T00:37:28;98786.13;;;20.84
74750;BMP280;63269;53.330;-6.288;2022-11-15T00:39:54;98796.78;;;20.84
74750;BMP280;63269;53.330;-6.288;2022-11-15T00:42:19;98796.78;;;20.84
74750;BMP280;63269;53.330;-6.288;2022-11-15T00:44:45;98774.06;;;20.83
74750;BMP280;63269;53.330;-6.288;2022-11-15T00:47:10;98774.06;;;20.83
74750;BMP280;63269;53.330;-6.288;2022-11-15T00:49:35;98755.88;;;20.82
74750;BMP280;63269;53.330;-6.288;2022-11-15T00:52:01;98747.88;;;20.82
74750;BMP280;63269;53.330;-6.288;2022-11-15T00:54:26;98738.41;;;20.81
74750;BMP280;63269;53.330;-6.288;2022-11-15T00:56:52;98738.41;;;20.81
74750;BMP280;63269;53.330;-6.288;2022-11-15T00:59:17;98733.09;;;20.81
74750;BMP280;63269;53.330;-6.288;2022-11-15T01:01:42;98730.44;;;20.81
74750;BMP280;63269;53.330;-6.288;2022-11-15T01:04:08;98733.09;;;20.81
74750;BMP280;63269;53.330;-6.288;2022-11-15T01:06:33;98732.34;;;20.80
74750;BMP280;63269;53.330;-6.288;2022-11-15T01:08:59;98734.28;;;20.79
74750;BMP280;63269;53.330;-6.288;2022-11-15T01:11:24;98724.13;;;20.78
74750;BMP280;63269;53.330;-6.288;2022-11-15T01:13:49;98723.63;;;20.79
74750;BMP280;63269;53.330;-6.288;2022-11-15T01:16:17;98702.31;;;20.79
74750;BMP280;63269;53.330;-6.288;2022-11-15T01:18:44;98708.16;;;20.78
74750;BMP280;63269;53.330;-6.288;2022-11-15T01:21:12;98708.16;;;20.78
74750;BMP280;63269;53.330;-6.288;2022-11-15T01:23:38;98697.97;;;20.76
74750;BMP280;63269;53.330;-6.288;2022-11-15T01:26:07;98697.97;;;20.76
74750;BMP280;63269;53.330;-6.288;2022-11-15T01:28:34;98697.97;;;20.76
74750;BMP280;63269;53.330;-6.288;2022-11-15T01:31:02;98673.28;;;20.76
74750;BMP280;63269;53.330;-6.288;2022-11-15T01:33:28;98669.84;;;20.75
74750;BMP280;63269;53.330;-6.288;2022-11-15T01:35:54;98677.84;;;20.75
74750;BMP280;63269;53.330;-6.288;2022-11-15T01:38:20;98667.19;;;20.75
74750;BMP280;63269;53.330;-6.288;2022-11-15T01:40:45;98665.03;;;20.74
74750;BMP280;63269;53.330;-6.288;2022-11-15T01:45:53;98656.78;;;20.72
74750;BMP280;63269;53.330;-6.288;2022-11-15T01:48:21;98656.78;;;20.72
74750;BMP280;63269;53.330;-6.288;2022-11-15T01:50:47;98648.81;;;20.72
74750;BMP280;63269;53.330;-6.288;2022-11-15T01:53:14;98638.16;;;20.72
74750;BMP280;63269;53.330;-6.288;2022-11-15T01:55:40;98635.50;;;20.72
74750;BMP280;63269;53.330;-6.288;2022-11-15T01:58:07;98638.16;;;20.72
74750;BMP280;63269;53.330;-6.288;2022-11-15T02:00:32;98680.03;;;20.71
74750;BMP280;63269;53.330;-6.288;2022-11-15T02:02:58;98680.03;;;20.71
74750;BMP280;63269;53.330;-6.288;2022-11-15T02:05:23;98707.16;;;20.70
74750;BMP280;63269;53.330;-6.288;2022-11-15T02:07:49;98707.16;;;20.70
74750;BMP280;63269;53.330;-6.288;2022-11-15T02:10:20;98731.13;;;20.70
74750;BMP280;63269;53.330;-6.288;2022-11-15T02:12:46;98741.28;;;20.71
74750;BMP280;63269;53.330;-6.288;2022-11-15T02:15:12;98741.78;;;20.70
74750;BMP280;63269;53.330;-6.288;2022-11-15T02:18:25;98759.69;;;20.69
74750;BMP280;63269;53.330;-6.288;2022-11-15T02:20:41;98759.69;;;20.69
74750;BMP280;63269;53.330;-6.288;2022-11-15T02:29:10;98770.09;;;20.67
74750;BMP280;63269;53.330;-6.288;2022-11-15T02:34:56;98765.72;;;20.64
74750;BMP280;63269;53.330;-6.288;2022-11-15T02:37:34;98775.66;;;20.64
74750;BMP280;63269;53.330;-6.288;2022-11-15T02:42:37;98775.66;;;20.64
74750;BMP280;63269;53.330;-6.288;2022-11-15T02:45:30;98773.72;;;20.64
74750;BMP280;63269;53.330;-6.288;2022-11-15T02:47:59;98766.19;;;20.63
74750;BMP280;63269;53.330;-6.288;2022-11-15T02:50:28;98782.19;;;20.63
74750;BMP280;63269;53.330;-6.288;2022-11-15T02:52:55;98788.72;;;20.62
74750;BMP280;63269;53.330;-6.288;2022-11-15T03:06:48;98789.66;;;20.58
74750;BMP280;63269;53.330;-6.288;2022-11-15T03:12:14;98785.09;;;20.59
74750;BMP280;63269;53.330;-6.288;2022-11-15T03:15:12;98780.22;;;20.57
74750;BMP280;63269;53.330;-6.288;2022-11-15T03:17:49;98792.81;;;20.57
74750;BMP280;63269;53.330;-6.288;2022-11-15T03:20:17;98789.44;;;20.56
74750;BMP280;63269;53.330;-6.288;2022-11-15T03:22:46;98784.34;;;20.58
74750;BMP280;63269;53.330;-6.288;2022-11-15T03:25:17;98784.34;;;20.58
74750;BMP280;63269;53.330;-6.288;2022-11-15T03:27:47;98782.88;;;20.57
74750;BMP280;63269;53.330;-6.288;2022-11-15T03:30:13;98786.78;;;20.56
74750;BMP280;63269;53.330;-6.288;2022-11-15T03:32:49;98792.09;;;20.56
74750;BMP280;63269;53.330;-6.288;2022-11-15T03:35:19;98800.81;;;20.57
74750;BMP280;63269;53.330;-6.288;2022-11-15T03:40:14;98791.34;;;20.56
74750;BMP280;63269;53.330;-6.288;2022-11-15T03:42:46;98791.34;;;20.56
74750;BMP280;63269;53.330;-6.288;2022-11-15T03:47:45;98806.59;;;20.55
74750;BMP280;63269;53.330;-6.288;2022-11-15T03:50:15;98794.00;;;20.56
74750;BMP280;63269;53.330;-6.288;2022-11-15T03:52:42;98795.69;;;20.53
74750;BMP280;63269;53.330;-6.288;2022-11-15T03:55:10;98795.69;;;20.53
74750;BMP280;63269;53.330;-6.288;2022-11-15T03:57:36;98798.34;;;20.53
74750;BMP280;63269;53.330;-6.288;2022-11-15T04:00:03;98798.34;;;20.53
74750;BMP280;63269;53.330;-6.288;2022-11-15T04:02:29;98803.69;;;20.53
74750;BMP280;63269;53.330;-6.288;2022-11-15T04:04:54;98793.53;;;20.52
74750;BMP280;63269;53.330;-6.288;2022-11-15T04:07:20;98786.72;;;20.51
74750;BMP280;63269;53.330;-6.288;2022-11-15T04:09:45;98797.38;;;20.51
74750;BMP280;63269;53.330;-6.288;2022-11-15T04:12:35;98789.41;;;20.51
74750;BMP280;63269;53.330;-6.288;2022-11-15T04:15:04;98789.41;;;20.51
74750;BMP280;63269;53.330;-6.288;2022-11-15T04:17:33;98788.41;;;20.48
74750;BMP280;63269;53.330;-6.288;2022-11-15T04:19:59;98788.41;;;20.48
74750;BMP280;63269;53.330;-6.288;2022-11-15T04:22:43;98789.16;;;20.49
74750;BMP280;63269;53.330;-6.288;2022-11-15T04:25:26;98787.69;;;20.48
74750;BMP280;63269;53.330;-6.288;2022-11-15T04:27:52;98795.69;;;20.48
74750;BMP280;63269;53.330;-6.288;2022-11-15T04:30:17;98795.69;;;20.48
74750;BMP280;63269;53.330;-6.288;2022-11-15T04:32:42;98787.41;;;20.46
74750;BMP280;63269;53.330;-6.288;2022-11-15T04:35:08;98788.88;;;20.47
74750;BMP280;63269;53.330;-6.288;2022-11-15T04:37:33;98792.75;;;20.46
74750;BMP280;63269;53.330;-6.288;2022-11-15T04:39:59;98808.72;;;20.46
74750;BMP280;63269;53.330;-6.288;2022-11-15T04:42:24;98808.72;;;20.46
74750;BMP280;63269;53.330;-6.288;2022-11-15T04:44:50;98802.69;;;20.45
74750;BMP280;63269;53.330;-6.288;2022-11-15T04:47:15;98806.56;;;20.44
74750;BMP280;63269;53.330;-6.288;2022-11-15T04:49:40;98795.19;;;20.44
74750;BMP280;63269;53.330;-6.288;2022-11-15T04:52:06;98785.25;;;20.44
74750;BMP280;63269;53.330;-6.288;2022-11-15T04:54:31;98785.25;;;20.44
74750;BMP280;63269;53.330;-6.288;2022-11-15T04:56:57;98781.13;;;20.43
74750;BMP280;63269;53.330;-6.288;2022-11-15T04:59:22;98784.25;;;20.42
74750;BMP280;63269;53.330;-6.288;2022-11-15T05:01:47;98789.09;;;20.43
74750;BMP280;63269;53.330;-6.288;2022-11-15T05:04:13;98780.41;;;20.43
74750;BMP280;63269;53.330;-6.288;2022-11-15T05:06:46;98796.38;;;20.43
74750;BMP280;63269;53.330;-6.288;2022-11-15T05:09:12;98784.25;;;20.42
74750;BMP280;63269;53.330;-6.288;2022-11-15T05:11:39;98808.72;;;20.40
74750;BMP280;63269;53.330;-6.288;2022-11-15T05:14:04;98802.66;;;20.40
74750;BMP280;63269;53.330;-6.288;2022-11-15T05:16:30;98802.88;;;20.42
74750;BMP280;63269;53.330;-6.288;2022-11-15T05:18:55;98800.22;;;20.42
74750;BMP280;63269;53.330;-6.288;2022-11-15T05:21:21;98813.06;;;20.43
74750;BMP280;63269;53.330;-6.288;2022-11-15T05:23:46;98822.03;;;20.46
74750;BMP280;63269;53.330;-6.288;2022-11-15T05:26:12;98822.53;;;20.50
74750;BMP280;63269;53.330;-6.288;2022-11-15T05:28:38;98822.53;;;20.50
74750;BMP280;63269;53.330;-6.288;2022-11-15T05:33:31;98821.16;;;20.60
74750;BMP280;63269;53.330;-6.288;2022-11-15T05:36:31;98828.91;;;20.64
74750;BMP280;63269;53.330;-6.288;2022-11-15T05:38:58;98838.59;;;20.67
74750;BMP280;63269;53.330;-6.288;2022-11-15T05:41:31;98838.59;;;20.67
74750;BMP280;63269;53.330;-6.288;2022-11-15T05:43:58;98843.00;;;20.70
74750;BMP280;63269;53.330;-6.288;2022-11-15T05:46:23;98851.25;;;20.72
74750;BMP280;63269;53.330;-6.288;2022-11-15T05:48:51;98861.94;;;20.77
74750;BMP280;63269;53.330;-6.288;2022-11-15T05:51:19;98858.78;;;20.79
74750;BMP280;63269;53.330;-6.288;2022-11-15T05:53:45;98860.97;;;20.81
74750;BMP280;63269;53.330;-6.288;2022-11-15T05:56:12;98860.97;;;20.81
74750;BMP280;63269;53.330;-6.288;2022-11-15T05:58:37;98855.41;;;20.84
74750;BMP280;63269;53.330;-6.288;2022-11-15T06:01:04;98847.69;;;20.86
74750;BMP280;63269;53.330;-6.288;2022-11-15T06:03:29;98847.69;;;20.86
74750;BMP280;63269;53.330;-6.288;2022-11-15T06:05:56;98851.06;;;20.87
74750;BMP280;63269;53.330;-6.288;2022-11-15T06:08:21;98866.56;;;20.88
74750;BMP280;63269;53.330;-6.288;2022-11-15T06:10:47;98874.09;;;20.90
74750;BMP280;63269;53.330;-6.288;2022-11-15T06:13:12;98874.09;;;20.90
74750;BMP280;63269;53.330;-6.288;2022-11-15T06:15:37;98869.00;;;20.92
74750;BMP280;63269;53.330;-6.288;2022-11-15T06:18:03;98869.00;;;20.92
74750;BMP280;63269;53.330;-6.288;2022-11-15T06:20:29;98857.16;;;20.93
74750;BMP280;63269;53.330;-6.288;2022-11-15T06:23:02;98883.56;;;20.96
74750;BMP280;63269;53.330;-6.288;2022-11-15T06:25:28;98883.56;;;20.96
74750;BMP280;63269;53.330;-6.288;2022-11-15T06:27:55;98873.41;;;20.95
74750;BMP280;63269;53.330;-6.288;2022-11-15T06:30:22;98860.31;;;20.97
74750;BMP280;63269;53.330;-6.288;2022-11-15T06:32:47;98858.63;;;20.99
74750;BMP280;63269;53.330;-6.288;2022-11-15T06:35:13;98859.84;;;20.98
74750;BMP280;63269;53.330;-6.288;2022-11-15T06:37:39;98871.00;;;21.03
74750;BMP280;63269;53.330;-6.288;2022-11-15T06:40:05;98871.00;;;21.03
74750;BMP280;63269;53.330;-6.288;2022-11-15T06:42:30;98859.59;;;21.02
74750;BMP280;63269;53.330;-6.288;2022-11-15T06:44:56;98862.28;;;21.02
74750;BMP280;63269;53.330;-6.288;2022-11-15T06:47:21;98875.38;;;21.06
74750;BMP280;63269;53.330;-6.288;2022-11-15T06:49:47;98875.38;;;21.06
74750;BMP280;63269;53.330;-6.288;2022-11-15T06:52:12;98871.03;;;21.08
74750;BMP280;63269;53.330;-6.288;2022-11-15T06:54:37;98873.19;;;21.10
74750;BMP280;63269;53.330;-6.288;2022-11-15T06:57:04;98875.84;;;21.10
74750;BMP280;63269;53.330;-6.288;2022-11-15T06:59:30;98885.31;;;21.11
74750;BMP280;63269;53.330;-6.288;2022-11-15T07:01:55;98893.56;;;21.13
74750;BMP280;63269;53.330;-6.288;2022-11-15T07:04:20;98893.56;;;21.13
74750;BMP280;63269;53.330;-6.288;2022-11-15T07:06:47;98900.34;;;21.14
74750;BMP280;63269;53.330;-6.288;2022-11-15T07:09:13;98897.47;;;21.12
74750;BMP280;63269;53.330;-6.288;2022-11-15T07:11:38;98909.34;;;21.16
74750;BMP280;63269;53.330;-6.288;2022-11-15T07:14:04;98912.72;;;21.17
74750;BMP280;63269;53.330;-6.288;2022-11-15T07:16:29;98909.59;;;21.18
74750;BMP280;63269;53.330;-6.288;2022-11-15T07:18:55;98914.47;;;21.20
74750;BMP280;63269;53.330;-6.288;2022-11-15T07:21:20;98912.25;;;21.18
74750;BMP280;63269;53.330;-6.288;2022-11-15T07:23:45;98912.75;;;21.23
74750;BMP280;63269;53.330;-6.288;2022-11-15T07:26:11;98895.53;;;21.24
74750;BMP280;63269;53.330;-6.288;2022-11-15T07:28:36;98894.34;;;21.25
74750;BMP280;63269;53.330;-6.288;2022-11-15T07:31:03;98906.00;;;21.27
74750;BMP280;63269;53.330;-6.288;2022-11-15T07:33:29;98902.84;;;21.29
74750;BMP280;63269;53.330;-6.288;2022-11-15T07:35:58;98908.91;;;21.29
74750;BMP280;63269;53.330;-6.288;2022-11-15T07:38:25;98904.53;;;21.32
74750;BMP280;63269;53.330;-6.288;2022-11-15T07:40:56;98904.53;;;21.32
74750;BMP280;63269;53.330;-6.288;2022-11-15T07:43:22;98898.03;;;21.33
74750;BMP280;63269;53.330;-6.288;2022-11-15T07:45:48;98898.03;;;21.33
74750;BMP280;63269;53.330;-6.288;2022-11-15T07:48:13;98907.94;;;21.32
74750;BMP280;63269;53.330;-6.288;2022-11-15T07:50:42;98902.84;;;21.34
74750;BMP280;63269;53.330;-6.288;2022-11-15T07:53:08;98905.78;;;21.36
74750;BMP280;63269;53.330;-6.288;2022-11-15T07:55:34;98899.94;;;21.38
74750;BMP280;63269;53.330;-6.288;2022-11-15T07:58:05;98899.94;;;21.38
74750;BMP280;63269;53.330;-6.288;2022-11-15T08:00:31;98892.69;;;21.38
74750;BMP280;63269;53.330;-6.288;2022-11-15T08:03:10;98891.47;;;21.39
74750;BMP280;63269;53.330;-6.288;2022-11-15T08:05:37;98910.41;;;21.42
74750;BMP280;63269;53.330;-6.288;2022-11-15T08:08:03;98913.06;;;21.42
74750;BMP280;63269;53.330;-6.288;2022-11-15T08:10:29;98913.06;;;21.42
74750;BMP280;63269;53.330;-6.288;2022-11-15T08:13:03;98921.78;;;21.42
74750;BMP280;63269;53.330;-6.288;2022-11-15T08:15:29;98927.59;;;21.40
74750;BMP280;63269;53.330;-6.288;2022-11-15T08:18:00;98916.94;;;21.40
74750;BMP280;63269;53.330;-6.288;2022-11-15T08:20:28;98909.41;;;21.39
74750;BMP280;63269;53.330;-6.288;2022-11-15T08:22:55;98907.94;;;21.38
74750;BMP280;63269;53.330;-6.288;2022-11-15T08:25:22;98891.72;;;21.36
74750;BMP280;63269;53.330;-6.288;2022-11-15T08:27:51;98906.25;;;21.35
74750;BMP280;63269;53.330;-6.288;2022-11-15T08:30:17;98907.22;;;21.32
74750;BMP280;63269;53.330;-6.288;2022-11-15T08:32:42;98919.81;;;21.31
74750;BMP280;63269;53.330;-6.288;2022-11-15T08:35:08;98923.69;;;21.30
74750;BMP280;63269;53.330;-6.288;2022-11-15T08:37:33;98927.56;;;21.29
74750;BMP280;63269;53.330;-6.288;2022-11-15T08:39:59;98927.31;;;21.27
74750;BMP280;63269;53.330;-6.288;2022-11-15T08:42:24;98927.78;;;21.26
74750;BMP280;63269;53.330;-6.288;2022-11-15T08:44:49;98937.00;;;21.25
74750;BMP280;63269;53.330;-6.288;2022-11-15T08:47:15;98933.63;;;21.24
74750;BMP280;63269;53.330;-6.288;2022-11-15T08:49:40;98922.69;;;21.22
74750;BMP280;63269;53.330;-6.288;2022-11-15T08:52:06;98927.28;;;21.22
74750;BMP280;63269;53.330;-6.288;2022-11-15T08:54:31;98923.19;;;21.20
74750;BMP280;63269;53.330;-6.288;2022-11-15T08:56:57;98916.38;;;21.19
74750;BMP280;63269;53.330;-6.288;2022-11-15T08:59:22;98922.91;;;21.18
74750;BMP280;63269;53.330;-6.288;2022-11-15T09:01:47;98922.91;;;21.18
74750;BMP280;63269;53.330;-6.288;2022-11-15T09:04:13;98912.00;;;21.16
74750;BMP280;63269;53.330;-6.288;2022-11-15T09:06:38;98917.81;;;21.15
74750;BMP280;63269;53.330;-6.288;2022-11-15T09:09:04;98919.00;;;21.14
74750;BMP280;63269;53.330;-6.288;2022-11-15T09:11:29;98919.00;;;21.14
74750;BMP280;63269;53.330;-6.288;2022-11-15T09:13:55;98912.94;;;21.13
74750;BMP280;63269;53.330;-6.288;2022-11-15T09:16:20;98912.72;;;21.11
74750;BMP280;63269;53.330;-6.288;2022-11-15T09:18:46;98905.91;;;21.10
74750;BMP280;63269;53.330;-6.288;2022-11-15T09:21:11;98907.84;;;21.10
74750;BMP280;63269;53.330;-6.288;2022-11-15T09:23:37;98905.16;;;21.10
74750;BMP280;63269;53.330;-6.288;2022-11-15T09:26:03;98897.94;;;21.10
74750;BMP280;63269;53.330;-6.288;2022-11-15T09:28:30;98905.16;;;21.10
74750;BMP280;63269;53.330;-6.288;2022-11-15T09:31:01;98906.41;;;21.09
74750;BMP280;63269;53.330;-6.288;2022-11-15T09:33:27;98902.28;;;21.08
74750;BMP280;63269;53.330;-6.288;2022-11-15T09:35:53;98898.16;;;21.07
74750;BMP280;63269;53.330;-6.288;2022-11-15T09:38:19;98900.56;;;21.05
74750;BMP280;63269;53.330;-6.288;2022-11-15T09:40:49;98900.56;;;21.05
74750;BMP280;63269;53.330;-6.288;2022-11-15T09:43:35;98889.91;;;21.05
74750;BMP280;63269;53.330;-6.288;2022-11-15T09:46:21;98889.91;;;21.05
74750;BMP280;63269;53.330;-6.288;2022-11-15T09:48:53;98894.53;;;21.04
74750;BMP280;63269;53.330;-6.288;2022-11-15T09:51:30;98894.53;;;21.04
74750;BMP280;63269;53.330;-6.288;2022-11-15T09:56:44;98886.97;;;21.03
74750;BMP280;63269;53.330;-6.288;2022-11-15T10:04:46;98872.19;;;20.96
74750;BMP280;63269;53.330;-6.288;2022-11-15T10:07:23;98872.19;;;20.96
74750;BMP280;63269;53.330;-6.288;2022-11-15T10:09:54;98871.44;;;20.95
74750;BMP280;63269;53.330;-6.288;2022-11-15T10:12:22;98879.91;;;20.94
74750;BMP280;63269;53.330;-6.288;2022-11-15T10:14:50;98879.91;;;20.94
74750;BMP280;63269;53.330;-6.288;2022-11-15T10:17:47;98881.84;;;20.93
74750;BMP280;63269;53.330;-6.288;2022-11-15T10:20:27;98878.22;;;20.91
74750;BMP280;63269;53.330;-6.288;2022-11-15T10:22:55;98878.22;;;20.91
74750;BMP280;63269;53.330;-6.288;2022-11-15T10:25:27;98885.22;;;20.88
74750;BMP280;63269;53.330;-6.288;2022-11-15T10:30:20;98874.56;;;20.88
74750;BMP280;63269;53.330;-6.288;2022-11-15T10:32:47;98863.38;;;20.84
74750;BMP280;63269;53.330;-6.288;2022-11-15T10:35:26;98853.00;;;20.86
74750;BMP280;63269;53.330;-6.288;2022-11-15T10:38:01;98864.13;;;20.85
74750;BMP280;63269;53.330;-6.288;2022-11-15T10:40:29;98863.38;;;20.84
74750;BMP280;63269;53.330;-6.288;2022-11-15T10:43:24;98863.88;;;20.83
74750;BMP280;63269;53.330;-6.288;2022-11-15T10:45:51;98856.38;;;20.81
74750;BMP280;63269;53.330;-6.288;2022-11-15T10:50:44;98856.38;;;20.81
74750;BMP280;63269;53.330;-6.288;2022-11-15T10:53:31;98860.22;;;20.80
74750;BMP280;63269;53.330;-6.288;2022-11-15T10:56:04;98853.94;;;20.77
74750;BMP280;63269;53.330;-6.288;2022-11-15T11:01:12;98843.00;;;20.75
74750;BMP280;63269;53.330;-6.288;2022-11-15T11:03:39;98843.00;;;20.75
74750;BMP280;63269;53.330;-6.288;2022-11-15T11:06:19;98843.28;;;20.77
74750;BMP280;63269;53.330;-6.288;2022-11-15T11:08:59;98843.28;;;20.77
74750;BMP280;63269;53.330;-6.288;2022-11-15T11:11:44;98849.31;;;20.72
74750;BMP280;63269;53.330;-6.288;2022-11-15T11:14:37;98853.44;;;20.73
74750;BMP280;63269;53.330;-6.288;2022-11-15T11:20:07;98848.06;;;20.68
74750;BMP280;63269;53.330;-6.288;2022-11-15T11:30:17;98830.63;;;20.67
74750;BMP280;63269;53.330;-6.288;2022-11-15T11:36:01;98831.13;;;20.65
74750;BMP280;63269;53.330;-6.288;2022-11-15T11:38:52;98822.88;;;20.63
74750;BMP280;63269;53.330;-6.288;2022-11-15T11:41:50;98826.00;;;20.62
74750;BMP280;63269;53.330;-6.288;2022-11-15T11:44:50;98807.84;;;20.60
74750;BMP280;63269;53.330;-6.288;2022-11-15T11:47:40;98807.84;;;20.60
74750;BMP280;63269;53.330;-6.288;2022-11-15T11:50:19;98785.59;;;20.63
74750;BMP280;63269;53.330;-6.288;2022-11-15T11:53:03;98783.41;;;20.67
74750;BMP280;63269;53.330;-6.288;2022-11-15T11:55:39;98788.50;;;20.71
74750;BMP280;63269;53.330;-6.288;2022-11-15T11:58:23;98781.75;;;20.75
74750;BMP280;63269;53.330;-6.288;2022-11-15T12:00:56;98781.75;;;20.75
74750;BMP280;63269;53.330;-6.288;2022-11-15T12:06:21;98783.72;;;20.81
74750;BMP280;63269;53.330;-6.288;2022-11-15T12:09:12;98783.72;;;20.81
74750;BMP280;63269;53.330;-6.288;2022-11-15T12:17:04;98791.22;;;20.88
74750;BMP280;63269;53.330;-6.288;2022-11-15T12:19:30;98791.22;;;20.88
74750;BMP280;63269;53.330;-6.288;2022-11-15T12:22:02;98787.13;;;20.92
74750;BMP280;63269;53.330;-6.288;2022-11-15T12:25:08;98776.00;;;20.94
74750;BMP280;63269;53.330;-6.288;2022-11-15T12:27:42;98773.56;;;20.96
74750;BMP280;63269;53.330;-6.288;2022-11-15T12:30:13;98773.56;;;20.96
74750;BMP280;63269;53.330;-6.288;2022-11-15T12:32:39;98762.91;;;20.96
74750;BMP280;63269;53.330;-6.288;2022-11-15T12:35:21;98762.69;;;20.99
74750;BMP280;63269;53.330;-6.288;2022-11-15T12:37:52;98754.19;;;21.01
74750;BMP280;63269;53.330;-6.288;2022-11-15T12:40:25;98754.19;;;21.01
74750;BMP280;63269;53.330;-6.288;2022-11-15T12:45:35;98740.66;;;21.05
74750;BMP280;63269;53.330;-6.288;2022-11-15T12:51:02;98740.66;;;21.10
74750;BMP280;63269;53.330;-6.288;2022-11-15T12:53:33;98739.69;;;21.13
74750;BMP280;63269;53.330;-6.288;2022-11-15T12:58:57;98740.69;;;21.16
74750;BMP280;63269;53.330;-6.288;2022-11-15T13:06:45;98741.91;;;21.20
74750;BMP280;63269;53.330;-6.288;2022-11-15T13:11:56;98737.53;;;21.23
74750;BMP280;63269;53.330;-6.288;2022-11-15T13:22:43;98708.94;;;21.29
74750;BMP280;63269;53.330;-6.288;2022-11-15T13:26:10;98708.94;;;21.29
74750;BMP280;63269;53.330;-6.288;2022-11-15T13:31:40;98712.81;;;21.34
74750;BMP280;63269;53.330;-6.288;2022-11-15T13:34:23;98711.38;;;21.33
74750;BMP280;63269;53.330;-6.288;2022-11-15T13:36:50;98709.91;;;21.32
74750;BMP280;63269;53.330;-6.288;2022-11-15T13:39:31;98709.91;;;21.32
74750;BMP280;63269;53.330;-6.288;2022-11-15T13:41:57;98704.34;;;21.30
74750;BMP280;63269;53.330;-6.288;2022-11-15T13:44:28;98709.66;;;21.30
74750;BMP280;63269;53.330;-6.288;2022-11-15T13:47:05;98696.84;;;21.28
74750;BMP280;63269;53.330;-6.288;2022-11-15T13:49:32;98693.19;;;21.26
74750;BMP280;63269;53.330;-6.288;2022-11-15T13:52:00;98698.50;;;21.26
74750;BMP280;63269;53.330;-6.288;2022-11-15T13:54:36;98708.94;;;21.24
74750;BMP280;63269;53.330;-6.288;2022-11-15T13:57:20;98706.75;;;21.22
74750;BMP280;63269;53.330;-6.288;2022-11-15T14:02:19;98703.13;;;21.19
74750;BMP280;63269;53.330;-6.288;2022-11-15T14:04:55;98695.13;;;21.19
74750;BMP280;63269;53.330;-6.288;2022-11-15T14:07:23;98695.13;;;21.19
74750;BMP280;63269;53.330;-6.288;2022-11-15T14:09:49;98690.03;;;21.16
74750;BMP280;63269;53.330;-6.288;2022-11-15T14:12:29;98690.03;;;21.16
74750;BMP280;63269;53.330;-6.288;2022-11-15T14:14:55;98685.91;;;21.15
74750;BMP280;63269;53.330;-6.288;2022-11-15T14:17:41;98695.09;;;21.14
74750;BMP280;63269;53.330;-6.288;2022-11-15T14:20:34;98683.50;;;21.11
74750;BMP280;63269;53.330;-6.288;2022-11-15T14:23:03;98693.16;;;21.09
74750;BMP280;63269;53.330;-6.288;2022-11-15T14:25:34;98683.72;;;21.08
74750;BMP280;63269;53.330;-6.288;2022-11-15T14:30:45;98681.31;;;21.04
74750;BMP280;63269;53.330;-6.288;2022-11-15T14:33:22;98672.59;;;21.04
74750;BMP280;63269;53.330;-6.288;2022-11-15T14:35:48;98672.59;;;21.04
74750;BMP280;63269;53.330;-6.288;2022-11-15T14:38:14;98670.16;;;21.00
74750;BMP280;63269;53.330;-6.288;2022-11-15T14:40:39;98672.81;;;21.00
74750;BMP280;63269;53.330;-6.288;2022-11-15T14:43:08;98679.84;;;20.97
74750;BMP280;63269;53.330;-6.288;2022-11-15T14:45:34;98664.31;;;20.96
74750;BMP280;63269;53.330;-6.288;2022-11-15T14:48:00;98664.31;;;20.96
74750;BMP280;63269;53.330;-6.288;2022-11-15T14:50:25;98670.16;;;20.94
74750;BMP280;63269;53.330;-6.288;2022-11-15T14:52:53;98669.41;;;20.94
74750;BMP280;63269;53.330;-6.288;2022-11-15T14:55:24;98658.75;;;20.94
74750;BMP280;63269;53.330;-6.288;2022-11-15T14:57:50;98658.75;;;20.94
74750;BMP280;63269;53.330;-6.288;2022-11-15T15:00:18;98651.03;;;20.90
74750;BMP280;63269;53.330;-6.288;2022-11-15T15:02:45;98654.88;;;20.89
74750;BMP280;63269;53.330;-6.288;2022-11-15T15:05:31;98649.34;;;20.87
74750;BMP280;63269;53.330;-6.288;2022-11-15T15:07:57;98652.44;;;20.86
74750;BMP280;63269;53.330;-6.288;2022-11-15T15:10:31;98643.00;;;20.85
74750;BMP280;63269;53.330;-6.288;2022-11-15T15:12:57;98640.84;;;20.83
74750;BMP280;63269;53.330;-6.288;2022-11-15T15:15:31;98642.25;;;20.84
74750;BMP280;63269;53.330;-6.288;2022-11-15T15:17:57;98646.66;;;20.82
74750;BMP280;63269;53.330;-6.288;2022-11-15T15:20:22;98635.00;;;20.79
74750;BMP280;63269;53.330;-6.288;2022-11-15T15:22:48;98637.66;;;20.79
74750;BMP280;63269;53.330;-6.288;2022-11-15T15:25:28;98640.84;;;20.77
74750;BMP280;63269;53.330;-6.288;2022-11-15T15:27:54;98631.38;;;20.76
74750;BMP280;63269;53.330;-6.288;2022-11-15T15:30:21;98634.03;;;20.76
74750;BMP280;63269;53.330;-6.288;2022-11-15T15:32:47;98631.84;;;20.75
74750;BMP280;63269;53.330;-6.288;2022-11-15T15:35:13;98640.56;;;20.75
74750;BMP280;63269;53.330;-6.288;2022-11-15T15:37:40;98630.91;;;20.78
74750;BMP280;63269;53.330;-6.288;2022-11-15T15:40:25;98632.59;;;20.81
74750;BMP280;63269;53.330;-6.288;2022-11-15T15:42:50;98632.59;;;20.81
74750;BMP280;63269;53.330;-6.288;2022-11-15T15:45:17;98627.53;;;20.83
74750;BMP280;63269;53.330;-6.288;2022-11-15T15:47:43;98620.47;;;20.86
74750;BMP280;63269;53.330;-6.288;2022-11-15T15:50:29;98613.72;;;20.90
74750;BMP280;63269;53.330;-6.288;2022-11-15T15:52:58;98617.81;;;20.91
74750;BMP280;63269;53.330;-6.288;2022-11-15T15:55:25;98621.22;;;20.92
74750;BMP280;63269;53.330;-6.288;2022-11-15T15:57:50;98621.22;;;20.92